Language selection

Weather shortcuts

Pacific - North Coast: Past 24 Hour Conditions

 

Langara Island

05:00 PM PST 25 February 2024
Disclaimer

This table is a summary of hourly weather conditions for the past 24 hours.
Please note that these observations might not always be representative of weather conditions over their associated marine area.

Date / Time
(PST)
Wind(knots) Conditions Visibility(km) Pressure(kPa) Air tempC) Relative humidity(%) Dew pointC)
25 February 2024
17:00 NNW 22 gusts 29 N/A N/A 100.3 3 71 -2
16:00 NNW 25 gusts 31 N/A N/A 100.2 3 70 -2
15:00 NW 23 gusts 33 N/A N/A 100.2 3 71 -2
14:00 NW 21 gusts 27 N/A N/A 100.1 3 72 -1
13:00 NW 26 gusts 33 N/A N/A 100.0 3 73 -1
12:00 WNW 28 gusts 33 N/A N/A 100.0 3 71 -1
11:00 WNW 30 gusts 36 N/A N/A 99.9 3 75 -1
10:00 WNW 31 gusts 39 N/A N/A 99.8 3 84 1
9:00 NW 35 gusts 42 N/A N/A 99.7 2 93 1
8:00 WNW 39 gusts 50 N/A N/A 99.6 3 92 2
7:00 W 41 gusts 55 N/A N/A 99.5 3 91 2
6:00 WSW 43 gusts 55 N/A N/A 99.5 3 84 1
5:00 W 43 gusts 54 N/A N/A 99.6 3 87 1
4:00 WSW 41 gusts 48 N/A N/A 99.8 2 89 1
3:00 WSW 37 gusts 49 N/A N/A 99.8 4 75 0
2:00 W 29 gusts 35 N/A N/A 99.9 4 89 2
1:00 WSW 28 gusts 38 N/A N/A 100.0 4 90 3
0:00 WSW 32 N/A N/A 100.1 4 89 3
24 February 2024
23:00 WSW 23 gusts 28 N/A N/A 100.2 4 92 3
22:00 WSW 28 gusts 36 N/A N/A 100.3 4 91 3
21:00 WSW 28 gusts 35 N/A N/A 100.4 4 91 3
20:00 WSW 19 gusts 26 N/A N/A 100.5 5 91 4
19:00 WSW 23 gusts 32 N/A N/A 100.6 5 91 4
18:00 WSW 17 N/A N/A 100.7 5 91 4
17:00 WSW 22 N/A N/A 100.8 6 92 4

Zoom-in to make a selection

Map of Pacific - North Coast marine weather areas Middle Nomad - 46004 South Nomad - 46036 Dixon Entrance Central - 46145 South Moresby - 46147 Nanakwa Shoal - 46181 North Hecate Strait - 46183 North Nomad - 46184 South Hecate Strait - 46185 West Sea Otter - 46204 West Dixon Entrance - 46205 East Dellwood - 46207 West Moresby - 46208 Sartine Island Cape St.James Kindakun Rocks Langara Island Masset Municipal Airport Rose Spit Sandspit Airport Bella Bella Airport Bella Coola Airport Bonilla Island Cathedral Point Cumshewa Island Grey Islet Holland Rock Lucy Islands Lightstation Prince Rupert Airport
Legend:
buoy Buoy
land station Land Station

Pacific - North Coast Area

Another Region

Date modified: